createdAt,value
2023-02-20T00:00:36.986Z,10.40
2023-02-20T00:03:23.284Z,9.93
2023-02-20T00:06:09.054Z,11.73
2023-02-20T00:08:54.503Z,15.50
2023-02-20T00:11:39.946Z,12.75
2023-02-20T00:14:25.461Z,12.52
2023-02-20T00:17:11.033Z,11.15
2023-02-20T00:19:56.400Z,8.85
2023-02-20T00:22:42.239Z,4.75
2023-02-20T00:25:27.875Z,4.18
2023-02-20T00:28:13.606Z,3.63
2023-02-20T00:30:59.142Z,3.50
2023-02-20T00:33:45.129Z,3.97
2023-02-20T00:36:30.506Z,4.85
2023-02-20T00:39:16.461Z,3.53
2023-02-20T00:42:03.116Z,3.30
2023-02-20T00:44:48.572Z,3.88
2023-02-20T00:47:34.197Z,4.60
2023-02-20T00:50:19.700Z,4.70
2023-02-20T00:53:05.236Z,4.32
2023-02-20T00:55:50.533Z,5.15
2023-02-20T00:58:35.950Z,6.53
2023-02-20T01:01:22.625Z,5.07
2023-02-20T01:04:09.143Z,3.83
2023-02-20T01:06:58.013Z,3.25
2023-02-20T01:09:48.136Z,3.25
2023-02-20T01:12:34.822Z,3.45
2023-02-20T01:15:20.886Z,3.47
2023-02-20T01:18:07.337Z,3.70
2023-02-20T01:20:52.910Z,4.57
2023-02-20T01:23:40.333Z,4.70
2023-02-20T01:26:25.736Z,4.40
2023-02-20T01:29:11.277Z,4.63
2023-02-20T01:32:23.493Z,3.95
2023-02-20T01:35:09.375Z,3.30
2023-02-20T01:37:55.194Z,4.05
2023-02-20T01:40:47.373Z,3.75
2023-02-20T01:43:33.064Z,3.63
2023-02-20T01:46:47.971Z,4.03
2023-02-20T01:49:54.755Z,4.47
2023-02-20T01:55:40.450Z,7.72
2023-02-20T01:58:31.829Z,7.68
2023-02-20T02:01:18.291Z,5.65
2023-02-20T02:04:09.042Z,2.35
2023-02-20T02:06:54.707Z,2.40
2023-02-20T02:09:47.236Z,2.38
2023-02-20T02:12:32.621Z,2.42
2023-02-20T02:15:20.998Z,2.20
2023-02-20T02:18:41.950Z,2.42
2023-02-20T02:21:45.655Z,2.00
2023-02-20T02:24:37.056Z,2.20
2023-02-20T02:28:03.570Z,2.88
2023-02-20T02:30:54.055Z,2.63
2023-02-20T02:34:30.974Z,2.60
2023-02-20T02:37:28.528Z,2.47
2023-02-20T02:40:28.117Z,2.47
2023-02-20T02:43:18.811Z,2.58
2023-02-20T02:46:09.678Z,2.58
2023-02-20T02:49:06.787Z,6.95
2023-02-20T02:51:55.201Z,5.07
2023-02-20T02:54:40.581Z,4.88
2023-02-20T02:57:26.987Z,4.10
2023-02-20T03:00:19.691Z,5.38
2023-02-20T03:03:34.553Z,6.03
2023-02-20T03:06:30.752Z,4.97
2023-02-20T03:09:27.292Z,6.38
2023-02-20T03:12:13.798Z,5.63
2023-02-20T03:15:23.801Z,4.28
2023-02-20T03:18:39.110Z,3.25
2023-02-20T03:21:26.132Z,3.05
2023-02-20T03:24:13.789Z,2.90
2023-02-20T03:27:01.195Z,2.75
2023-02-20T03:29:50.667Z,3.15
2023-02-20T03:32:55.016Z,3.08
2023-02-20T03:36:01.551Z,2.92
2023-02-20T03:39:19.244Z,3.00
2023-02-20T03:42:26.205Z,3.30
2023-02-20T03:45:23.277Z,4.70
2023-02-20T03:48:15.982Z,6.15
2023-02-20T03:51:20.399Z,7.35
2023-02-20T03:54:20.148Z,4.18
2023-02-20T03:57:13.504Z,6.53
2023-02-20T04:00:11.354Z,7.60
2023-02-20T04:03:15.455Z,10.27
2023-02-20T04:06:07.252Z,11.50
2023-02-20T04:09:02.435Z,12.48
2023-02-20T04:11:52.143Z,10.95
2023-02-20T04:14:38.529Z,11.50
2023-02-20T04:17:35.797Z,11.68
2023-02-20T04:20:22.756Z,12.77
2023-02-20T04:23:19.907Z,16.35
2023-02-20T04:26:13.164Z,21.08
2023-02-20T04:29:03.497Z,15.15
2023-02-20T04:34:35.678Z,8.25
2023-02-20T04:37:25.813Z,7.07
2023-02-20T04:40:15.201Z,9.57
2023-02-20T04:43:02.914Z,21.05
2023-02-20T04:45:48.879Z,26.20
2023-02-20T04:48:36.185Z,14.55
2023-02-20T04:51:22.790Z,11.60
2023-02-20T04:54:09.914Z,7.95
2023-02-20T04:56:55.230Z,12.07
2023-02-20T05:00:08.915Z,17.17
2023-02-20T05:02:55.212Z,16.00
2023-02-20T05:05:40.809Z,13.73
2023-02-20T05:08:32.060Z,9.10
2023-02-20T05:11:17.431Z,9.38
2023-02-20T05:14:07.317Z,8.50
2023-02-20T05:16:53.082Z,6.35
2023-02-20T05:19:39.090Z,7.50
2023-02-20T05:22:24.525Z,5.43
2023-02-20T05:25:10.006Z,6.63
2023-02-20T05:27:55.795Z,8.65
2023-02-20T05:30:42.581Z,9.85
2023-02-20T05:33:28.065Z,8.40
2023-02-20T05:36:13.798Z,6.22
2023-02-20T05:39:00.129Z,6.00
2023-02-20T05:41:45.850Z,7.68
2023-02-20T05:44:31.603Z,6.60
2023-02-20T05:47:17.296Z,10.35
2023-02-20T05:50:02.834Z,16.83
2023-02-20T05:52:48.574Z,12.80
2023-02-20T05:55:34.121Z,5.32
2023-02-20T05:58:19.604Z,9.02
2023-02-20T06:01:05.125Z,7.50
2023-02-20T06:03:51.936Z,8.25
2023-02-20T06:06:39.218Z,7.45
2023-02-20T06:09:24.631Z,10.38
2023-02-20T06:12:10.719Z,7.38
2023-02-20T06:14:56.094Z,9.38
2023-02-20T06:17:43.816Z,8.13
2023-02-20T06:20:29.912Z,8.55
2023-02-20T06:23:15.430Z,8.88
2023-02-20T06:26:01.174Z,7.82
2023-02-20T06:28:50.199Z,7.40
2023-02-20T06:31:36.140Z,7.55
2023-02-20T06:34:29.253Z,8.88
2023-02-20T06:37:14.725Z,11.32
2023-02-20T06:40:00.239Z,15.07
2023-02-20T06:42:49.266Z,10.57
2023-02-20T06:45:34.618Z,15.38
2023-02-20T06:48:24.252Z,11.07
2023-02-20T06:51:09.728Z,10.95
2023-02-20T06:53:55.043Z,4.10
2023-02-20T06:56:40.647Z,5.88
2023-02-20T06:59:26.304Z,5.10
2023-02-20T07:02:12.570Z,2.72
2023-02-20T07:04:58.736Z,6.57
2023-02-20T07:07:44.067Z,6.28
2023-02-20T07:10:29.585Z,7.03
2023-02-20T07:13:15.863Z,4.50
2023-02-20T07:16:02.324Z,4.43
2023-02-20T07:18:48.119Z,6.07
2023-02-20T07:21:33.578Z,5.78
2023-02-20T07:24:18.839Z,5.28
2023-02-20T07:29:50.603Z,5.45
2023-02-20T07:32:36.337Z,5.50
2023-02-20T07:35:21.860Z,5.47
2023-02-20T07:38:07.219Z,4.97
2023-02-20T07:40:52.886Z,4.50
2023-02-20T07:43:38.387Z,3.30
2023-02-20T07:46:25.925Z,4.63
2023-02-20T07:49:11.771Z,4.13
2023-02-20T07:51:57.659Z,3.13
2023-02-20T07:54:43.497Z,4.03
2023-02-20T07:57:31.947Z,2.65
2023-02-20T08:00:19.138Z,4.30
2023-02-20T08:03:04.920Z,2.30
2023-02-20T08:05:50.281Z,2.35
2023-02-20T08:08:36.066Z,2.25
2023-02-20T08:11:22.816Z,2.45
2023-02-20T08:14:08.606Z,1.67
2023-02-20T08:16:54.405Z,3.45
2023-02-20T08:19:40.420Z,0.88
2023-02-20T08:22:36.431Z,2.08
2023-02-20T08:25:27.253Z,4.35
2023-02-20T08:28:14.351Z,2.40
2023-02-20T08:31:00.422Z,1.58
2023-02-20T08:33:45.985Z,3.42
2023-02-20T08:36:31.510Z,4.22
2023-02-20T08:39:17.325Z,2.40
2023-02-20T08:42:03.360Z,1.55
2023-02-20T08:44:48.914Z,3.05
2023-02-20T08:47:34.939Z,1.90
2023-02-20T08:50:20.876Z,2.65
2023-02-20T08:53:06.413Z,1.65
2023-02-20T08:55:52.056Z,2.60
2023-02-20T08:58:37.365Z,3.95
2023-02-20T09:01:22.672Z,4.40
2023-02-20T09:04:10.397Z,2.83
2023-02-20T09:06:56.038Z,1.45
2023-02-20T09:09:41.682Z,4.22
2023-02-20T09:12:32.388Z,1.25
2023-02-20T09:15:19.237Z,2.75
2023-02-20T09:18:11.093Z,4.43
2023-02-20T09:20:56.752Z,2.90
2023-02-20T09:23:55.412Z,2.13
2023-02-20T09:26:41.909Z,2.75
2023-02-20T09:29:28.006Z,3.08
2023-02-20T09:32:14.507Z,2.95
2023-02-20T09:35:00.195Z,3.53
2023-02-20T09:37:46.366Z,2.45
2023-02-20T09:40:32.896Z,4.75
2023-02-20T09:43:31.088Z,2.42
2023-02-20T09:46:21.076Z,1.00
2023-02-20T09:49:11.692Z,2.78
2023-02-20T09:52:00.868Z,2.63
2023-02-20T09:54:52.058Z,2.47
2023-02-20T09:57:39.534Z,2.65
2023-02-20T10:00:30.177Z,2.38
2023-02-20T10:03:25.891Z,3.20
2023-02-20T10:06:19.104Z,2.65
2023-02-20T10:09:12.709Z,3.70
2023-02-20T10:12:12.237Z,3.15
2023-02-20T10:15:20.656Z,3.20
2023-02-20T10:18:19.038Z,3.00
2023-02-20T10:21:12.128Z,3.88
2023-02-20T10:24:23.290Z,2.40
2023-02-20T10:27:20.962Z,3.35
2023-02-20T10:30:07.296Z,1.45
2023-02-20T10:33:01.915Z,1.08
2023-02-20T10:36:03.174Z,2.03
2023-02-20T10:38:53.150Z,2.08
2023-02-20T10:41:43.539Z,3.13
2023-02-20T10:44:52.068Z,3.80
2023-02-20T10:47:44.609Z,5.82
2023-02-20T10:50:36.992Z,2.10
2023-02-20T10:53:49.033Z,2.40
2023-02-20T10:56:52.960Z,5.22
2023-02-20T10:59:55.886Z,10.65
2023-02-20T11:02:45.831Z,7.63
2023-02-20T11:05:35.744Z,8.30
2023-02-20T11:08:21.920Z,8.50
2023-02-20T11:11:24.659Z,10.35
2023-02-20T11:14:39.248Z,7.00
2023-02-20T11:17:28.070Z,4.35
2023-02-20T11:20:32.030Z,5.53
2023-02-20T11:23:36.189Z,6.53
2023-02-20T11:26:21.983Z,8.48
2023-02-20T11:29:10.659Z,3.13
2023-02-20T11:31:56.453Z,5.18
2023-02-20T11:34:44.673Z,3.80
2023-02-20T11:37:30.192Z,4.43
2023-02-20T11:40:17.009Z,3.55
2023-02-20T11:43:19.676Z,2.75
2023-02-20T11:46:18.887Z,6.55
2023-02-20T11:49:08.774Z,2.75
2023-02-20T11:52:25.132Z,2.22
2023-02-20T11:55:26.668Z,4.70
2023-02-20T11:58:24.529Z,2.30
2023-02-20T12:01:33.628Z,6.18
2023-02-20T12:04:27.406Z,3.55
2023-02-20T12:07:31.132Z,6.43
2023-02-20T12:10:21.642Z,2.05
2023-02-20T12:13:11.502Z,2.90
2023-02-20T12:16:12.771Z,5.78
2023-02-20T12:19:02.117Z,2.00
2023-02-20T12:22:11.696Z,5.55
2023-02-20T12:25:18.897Z,3.38
2023-02-20T12:28:07.892Z,3.15
2023-02-20T12:30:56.467Z,3.83
2023-02-20T12:33:51.278Z,3.85
2023-02-20T12:36:40.873Z,2.85
2023-02-20T12:39:29.253Z,4.95
2023-02-20T12:42:27.451Z,3.17
2023-02-20T12:45:15.870Z,4.53
2023-02-20T12:48:23.340Z,2.88
2023-02-20T12:51:15.031Z,1.67
2023-02-20T12:54:39.546Z,3.72
2023-02-20T12:57:47.669Z,5.50
2023-02-20T13:00:54.716Z,4.75
2023-02-20T13:04:00.818Z,3.42
2023-02-20T13:06:59.259Z,3.85
2023-02-20T13:10:10.572Z,2.90
2023-02-20T13:12:57.262Z,3.67
2023-02-20T13:15:46.327Z,6.25
2023-02-20T13:18:44.083Z,4.47
2023-02-20T13:21:30.719Z,1.85
2023-02-20T13:24:19.244Z,2.42
2023-02-20T13:27:09.301Z,5.10
2023-02-20T13:30:00.628Z,1.20
2023-02-20T13:32:46.347Z,4.82
2023-02-20T13:35:48.931Z,3.38
2023-02-20T13:38:34.738Z,4.57
2023-02-20T13:41:20.215Z,5.60
2023-02-20T13:44:28.419Z,3.63
2023-02-20T13:47:27.923Z,2.05
2023-02-20T13:50:33.332Z,4.15
2023-02-20T13:53:18.973Z,2.20
2023-02-20T13:56:04.369Z,2.50
2023-02-20T13:58:53.810Z,5.18
2023-02-20T14:02:02.452Z,1.60
2023-02-20T14:04:55.943Z,3.25
2023-02-20T14:07:45.553Z,5.93
2023-02-20T14:10:36.958Z,3.50
2023-02-20T14:13:39.057Z,3.72
2023-02-20T14:16:28.328Z,3.45
2023-02-20T14:19:24.464Z,2.65
2023-02-20T14:22:22.230Z,4.38
2023-02-20T14:25:11.797Z,5.07
2023-02-20T14:28:12.565Z,3.88
2023-02-20T14:31:07.185Z,5.22
2023-02-20T14:34:10.250Z,4.97
2023-02-20T14:37:01.598Z,4.63
2023-02-20T14:39:56.386Z,1.90
2023-02-20T14:42:46.538Z,3.13
2023-02-20T14:45:32.627Z,4.93
2023-02-20T14:48:27.865Z,5.28
2023-02-20T14:51:15.615Z,3.15
2023-02-20T14:54:17.955Z,4.50
2023-02-20T14:57:04.930Z,4.85
2023-02-20T14:59:52.478Z,3.90
2023-02-20T15:02:41.400Z,2.97
2023-02-20T15:05:35.352Z,3.90
2023-02-20T15:11:12.298Z,3.33
2023-02-20T15:13:58.404Z,1.50
2023-02-20T15:16:44.017Z,3.50
2023-02-20T15:19:35.773Z,3.38
2023-02-20T15:22:32.465Z,2.38
2023-02-20T15:25:21.270Z,2.95
2023-02-20T15:28:19.168Z,3.25
2023-02-20T15:31:10.991Z,2.25
2023-02-20T15:33:57.869Z,1.80
2023-02-20T15:36:43.511Z,2.42
2023-02-20T15:39:29.549Z,2.67
2023-02-20T15:42:15.916Z,2.55
2023-02-20T15:45:01.213Z,3.05
2023-02-20T15:47:46.680Z,2.47
2023-02-20T15:50:31.920Z,2.10
2023-02-20T15:53:29.037Z,2.90
2023-02-20T15:56:16.332Z,2.03
2023-02-20T15:59:08.667Z,1.92
2023-02-20T16:01:54.459Z,3.95
2023-02-20T16:04:40.462Z,2.67
2023-02-20T16:07:26.060Z,3.08
2023-02-20T16:10:14.240Z,2.05
2023-02-20T16:13:00.178Z,3.42
2023-02-20T16:15:45.527Z,2.88
2023-02-20T16:18:30.917Z,3.92
2023-02-20T16:21:18.456Z,1.75
2023-02-20T16:24:03.866Z,3.38
2023-02-20T16:26:49.988Z,1.98
2023-02-20T16:29:36.594Z,3.42
2023-02-20T16:32:30.302Z,4.30
2023-02-20T16:35:16.598Z,3.67
2023-02-20T16:38:02.261Z,2.25
2023-02-20T16:40:49.304Z,2.42
2023-02-20T16:43:34.571Z,2.72
2023-02-20T16:46:32.757Z,3.70
2023-02-20T16:49:22.510Z,2.90
2023-02-20T16:52:17.972Z,2.85
2023-02-20T16:55:14.761Z,1.52
2023-02-20T16:58:00.781Z,2.63
2023-02-20T17:00:57.150Z,4.35
2023-02-20T17:03:44.150Z,4.18
2023-02-20T17:06:30.759Z,2.95
2023-02-20T17:09:31.027Z,3.25
2023-02-20T17:16:31.743Z,2.08
2023-02-20T17:19:41.455Z,1.40
2023-02-20T17:22:28.382Z,3.15
2023-02-20T17:25:17.964Z,2.20
2023-02-20T17:28:05.067Z,3.05
2023-02-20T17:30:54.369Z,4.20
2023-02-20T17:33:40.900Z,3.33
2023-02-20T17:36:26.625Z,3.90
2023-02-20T17:39:12.140Z,4.85
2023-02-20T17:41:57.840Z,4.53
2023-02-20T17:44:43.458Z,1.92
2023-02-20T17:47:29.463Z,4.10
2023-02-20T17:50:17.644Z,4.22
2023-02-20T17:53:03.391Z,3.92
2023-02-20T17:55:49.104Z,2.97
2023-02-20T17:58:34.933Z,3.78
2023-02-20T18:01:22.394Z,4.80
2023-02-20T18:06:54.950Z,3.97
2023-02-20T18:09:44.097Z,3.35
2023-02-20T18:13:00.552Z,5.65
2023-02-20T18:16:32.856Z,3.08
2023-02-20T18:19:47.208Z,3.40
2023-02-20T18:22:33.813Z,3.55
2023-02-20T18:25:39.724Z,4.82
2023-02-20T18:28:27.357Z,4.72
2023-02-20T18:31:13.761Z,5.78
2023-02-20T18:34:00.482Z,5.05
2023-02-20T18:36:46.292Z,5.13
2023-02-20T18:39:31.901Z,5.43
2023-02-20T18:42:17.917Z,5.00
2023-02-20T18:45:03.667Z,4.95
2023-02-20T18:47:52.784Z,3.15
2023-02-20T18:50:40.019Z,4.53
2023-02-20T18:53:25.602Z,4.55
2023-02-20T18:56:13.272Z,3.88
2023-02-20T18:59:00.681Z,4.15
2023-02-20T19:01:46.965Z,4.97
2023-02-20T19:04:33.544Z,3.95
2023-02-20T19:07:19.446Z,4.78
2023-02-20T19:10:05.919Z,2.42
2023-02-20T19:12:52.488Z,5.20
2023-02-20T19:15:42.550Z,3.90
2023-02-20T19:18:29.584Z,4.18
2023-02-20T19:21:15.865Z,4.43
2023-02-20T19:24:01.333Z,4.35
2023-02-20T19:26:46.935Z,3.22
2023-02-20T19:29:39.533Z,4.70
2023-02-20T19:32:27.875Z,4.00
2023-02-20T19:35:17.385Z,2.88
2023-02-20T19:40:51.175Z,3.78
2023-02-20T19:43:39.901Z,3.20
2023-02-20T19:46:25.410Z,3.47
2023-02-20T19:49:12.908Z,3.47
2023-02-20T19:51:58.754Z,2.65
2023-02-20T19:54:47.671Z,2.90
2023-02-20T19:57:33.435Z,3.03
2023-02-20T20:00:20.645Z,2.90
2023-02-20T20:03:06.645Z,3.72
2023-02-20T20:05:52.620Z,3.85
2023-02-20T20:08:43.707Z,2.45
2023-02-20T20:11:37.424Z,2.42
2023-02-20T20:14:23.990Z,3.70
2023-02-20T20:17:09.444Z,2.92
2023-02-20T20:20:01.749Z,3.90
2023-02-20T20:22:53.307Z,3.70
2023-02-20T20:25:40.488Z,3.70
2023-02-20T20:28:30.748Z,2.30
2023-02-20T20:31:19.749Z,3.85
2023-02-20T20:34:06.096Z,3.30
2023-02-20T20:36:51.684Z,3.13
2023-02-20T20:39:37.056Z,2.92
2023-02-20T20:42:25.382Z,2.95
2023-02-20T20:45:20.486Z,3.25
2023-02-20T20:48:08.557Z,3.35
2023-02-20T20:50:53.973Z,3.15
2023-02-20T20:53:39.395Z,2.42
2023-02-20T20:56:24.928Z,3.42
2023-02-20T20:59:11.434Z,2.60
2023-02-20T21:01:56.999Z,2.60
2023-02-20T21:04:42.627Z,1.25
2023-02-20T21:07:30.378Z,2.78
2023-02-20T21:10:16.191Z,3.15
2023-02-20T21:13:01.480Z,2.38
2023-02-20T21:15:46.900Z,2.45
2023-02-20T21:18:32.858Z,2.63
2023-02-20T21:21:20.952Z,2.42
2023-02-20T21:24:07.140Z,2.13
2023-02-20T21:26:52.669Z,2.28
2023-02-20T21:29:38.533Z,1.98
2023-02-20T21:32:24.596Z,3.00
2023-02-20T21:35:13.352Z,2.25
2023-02-20T21:38:02.452Z,2.15
2023-02-20T21:40:58.484Z,1.52
2023-02-20T21:44:02.441Z,2.30
2023-02-20T21:46:50.239Z,1.85
2023-02-20T21:49:36.951Z,2.17
2023-02-20T21:52:22.575Z,2.53
2023-02-20T21:55:10.789Z,1.92
2023-02-20T21:57:56.675Z,1.13
2023-02-20T22:00:45.227Z,1.83
2023-02-20T22:03:30.881Z,1.80
2023-02-20T22:06:16.145Z,2.60
2023-02-20T22:09:21.394Z,1.88
2023-02-20T22:12:25.951Z,1.33
2023-02-20T22:15:33.188Z,1.67
2023-02-20T22:18:37.533Z,2.10
2023-02-20T22:21:44.091Z,1.95
2023-02-20T22:27:52.602Z,2.45
2023-02-20T22:30:57.152Z,1.50
2023-02-20T22:34:01.376Z,1.80
2023-02-20T22:37:07.361Z,1.27
2023-02-20T22:40:11.564Z,1.63
2023-02-20T22:43:15.790Z,2.53
2023-02-20T22:46:20.284Z,2.17
2023-02-20T22:49:24.391Z,2.17
2023-02-20T22:52:28.877Z,1.80
2023-02-20T22:55:32.977Z,1.48
2023-02-20T22:58:37.300Z,1.65
2023-02-20T23:01:41.760Z,1.80
2023-02-20T23:04:45.968Z,1.63
2023-02-20T23:07:50.331Z,1.98
2023-02-20T23:10:54.892Z,2.25
2023-02-20T23:14:05.499Z,0.95
2023-02-20T23:17:09.617Z,1.52
2023-02-20T23:20:14.103Z,1.95
2023-02-20T23:23:18.620Z,2.15
2023-02-20T23:26:24.149Z,1.70
2023-02-20T23:29:28.610Z,1.65
2023-02-20T23:32:33.044Z,1.52
2023-02-20T23:35:36.868Z,1.63
2023-02-20T23:38:40.998Z,1.58
2023-02-20T23:41:45.071Z,1.65
2023-02-20T23:44:49.778Z,1.70
2023-02-20T23:47:54.035Z,1.83
2023-02-20T23:50:58.225Z,1.52
2023-02-20T23:54:03.082Z,1.50
2023-02-20T23:57:07.213Z,1.55
